MUHG/HOG METAR and TAF weather

Enter ICAO airport designator
Station Type Date Time Source
MUHG METAR 2021/09/16 19:50 UTC NOAA

MUHG 161950Z VRB02KT 5000 VCSH TS FEW018CB SCT030 BKN075 26/22 Q1016


Station Type Date Time Source
MUHG Decoded METAR 2021/09/16 19:50 UTC NOAA

Holguin Civ / Mil , Cuba (MUHG) 20-47N 076-19W
Sep 16, 2021 - 03:50 PM EDT / 2021.09.16 1950 UTC
Wind: Variable at 2 MPH (2 KT):0
Visibility: 3 mile(s):0
Sky conditions: mostly cloudy
Weather: showers in the vicinity; thunder; Cumulonimbus clouds observed
Temperature: 78 F (26 C)
Dew Point: 71 F (22 C)
Relative Humidity: 78%
Pressure (altimeter): 30.00 in. Hg (1016 hPa)
ob: MUHG 161950Z VRB02KT 5000 VCSH TS FEW018CB SCT030 BKN075 26/22 Q1016
cycle: 20

Station Type Date Time Source
MUHG TAF 2021/09/16 18:03 UTC NOAA

TAF MUHG 161700Z 1618/1718 VRB03KT 9000 SCT020
TEMPO 1618/1624 VRB10KT 5000 TSRA SCT018CB BKN020

Example: see airport list